sensor_id;sensor_type;location;lat;lon;timestamp;pressure;altitude;pressure_sealevel;temperature;humidity
11712;BME280;5912;51.034;6.984;2023-04-10T00:01:49;56546.63;;;-142.13;54.15
11712;BME280;5912;51.034;6.984;2023-04-10T00:04:14;56576.69;;;-142.13;54.51
11712;BME280;5912;51.034;6.984;2023-04-10T00:06:40;56530.59;;;-142.13;54.67
11712;BME280;5912;51.034;6.984;2023-04-10T00:09:07;56534.63;;;-142.13;54.87
11712;BME280;5912;51.034;6.984;2023-04-10T00:11:32;56538.63;;;-142.13;54.64
11712;BME280;5912;51.034;6.984;2023-04-10T00:13:57;56534.63;;;-142.13;54.63
11712;BME280;5912;51.034;6.984;2023-04-10T00:16:50;56538.63;;;-142.13;54.88
11712;BME280;5912;51.034;6.984;2023-04-10T00:19:16;56514.59;;;-142.13;54.68
11712;BME280;5912;51.034;6.984;2023-04-10T00:21:41;56538.63;;;-142.13;54.92
11712;BME280;5912;51.034;6.984;2023-04-10T00:24:07;56546.63;;;-142.13;54.85
11712;BME280;5912;51.034;6.984;2023-04-10T00:26:33;56516.59;;;-142.13;54.44
11712;BME280;5912;51.034;6.984;2023-04-10T00:28:59;56510.56;;;-142.13;54.72
11712;BME280;5912;51.034;6.984;2023-04-10T00:31:24;56518.59;;;-142.13;54.80
11712;BME280;5912;51.034;6.984;2023-04-10T00:33:49;56544.63;;;-142.13;54.60
11712;BME280;5912;51.034;6.984;2023-04-10T00:36:16;56566.66;;;-142.13;54.26
11712;BME280;5912;51.034;6.984;2023-04-10T00:38:41;56556.66;;;-142.13;54.40
11712;BME280;5912;51.034;6.984;2023-04-10T00:41:07;56528.59;;;-142.13;54.45
11712;BME280;5912;51.034;6.984;2023-04-10T00:43:32;56542.63;;;-142.13;54.41
11712;BME280;5912;51.034;6.984;2023-04-10T00:45:58;56558.66;;;-142.13;54.05
11712;BME280;5912;51.034;6.984;2023-04-10T00:48:23;56514.59;;;-142.13;54.47
11712;BME280;5912;51.034;6.984;2023-04-10T00:50:49;56564.66;;;-142.13;54.13
11712;BME280;5912;51.034;6.984;2023-04-10T00:53:15;56568.66;;;-142.13;54.18
11712;BME280;5912;51.034;6.984;2023-04-10T00:55:40;56514.59;;;-142.13;54.20
11712;BME280;5912;51.034;6.984;2023-04-10T00:58:06;56538.63;;;-142.13;53.92
11712;BME280;5912;51.034;6.984;2023-04-10T01:00:31;56514.59;;;-142.13;53.96
11712;BME280;5912;51.034;6.984;2023-04-10T01:02:57;56530.59;;;-142.13;53.46
11712;BME280;5912;51.034;6.984;2023-04-10T01:05:27;56530.59;;;-142.13;53.82
11712;BME280;5912;51.034;6.984;2023-04-10T01:16:25;56518.59;;;-142.13;53.81
11712;BME280;5912;51.034;6.984;2023-04-10T01:19:01;56530.59;;;-142.13;53.78
11712;BME280;5912;51.034;6.984;2023-04-10T01:21:33;56560.66;;;-142.13;53.73
11712;BME280;5912;51.034;6.984;2023-04-10T01:29:40;56520.59;;;-142.13;53.98
11712;BME280;5912;51.034;6.984;2023-04-10T01:32:10;56510.56;;;-142.13;53.94
11712;BME280;5912;51.034;6.984;2023-04-10T01:34:43;56556.66;;;-142.13;54.24
11712;BME280;5912;51.034;6.984;2023-04-10T01:37:20;56558.66;;;-142.13;54.15
11712;BME280;5912;51.034;6.984;2023-04-10T01:39:48;56520.59;;;-142.13;54.36
11712;BME280;5912;51.034;6.984;2023-04-10T01:42:16;56528.59;;;-142.13;54.26
11712;BME280;5912;51.034;6.984;2023-04-10T01:44:45;56550.63;;;-142.13;54.37
11712;BME280;5912;51.034;6.984;2023-04-10T01:47:13;56532.63;;;-142.13;54.63
11712;BME280;5912;51.034;6.984;2023-04-10T01:49:39;56522.59;;;-142.13;54.51
11712;BME280;5912;51.034;6.984;2023-04-10T01:52:09;56572.69;;;-142.13;54.21
11712;BME280;5912;51.034;6.984;2023-04-10T01:54:35;56532.63;;;-142.13;54.26
11712;BME280;5912;51.034;6.984;2023-04-10T01:57:01;56554.66;;;-142.13;54.26
11712;BME280;5912;51.034;6.984;2023-04-10T01:59:28;56556.66;;;-142.13;54.34
11712;BME280;5912;51.034;6.984;2023-04-10T02:01:58;56512.59;;;-142.13;54.01
11712;BME280;5912;51.034;6.984;2023-04-10T02:04:23;56534.63;;;-142.13;53.78
11712;BME280;5912;51.034;6.984;2023-04-10T02:07:02;56532.63;;;-142.13;53.64
11712;BME280;5912;51.034;6.984;2023-04-10T02:10:03;56520.59;;;-142.13;53.68
11712;BME280;5912;51.034;6.984;2023-04-10T02:12:40;56524.59;;;-142.13;53.56
11712;BME280;5912;51.034;6.984;2023-04-10T02:15:10;56540.63;;;-142.13;53.45
11712;BME280;5912;51.034;6.984;2023-04-10T02:17:37;56526.59;;;-142.13;53.52
11712;BME280;5912;51.034;6.984;2023-04-10T02:20:05;56538.63;;;-142.13;53.58
11712;BME280;5912;51.034;6.984;2023-04-10T02:22:33;56520.59;;;-142.13;53.58
11712;BME280;5912;51.034;6.984;2023-04-10T02:24:59;56536.63;;;-142.13;53.68
11712;BME280;5912;51.034;6.984;2023-04-10T02:27:32;56560.66;;;-142.13;53.78
11712;BME280;5912;51.034;6.984;2023-04-10T02:29:58;56540.63;;;-142.13;53.40
11712;BME280;5912;51.034;6.984;2023-04-10T02:32:24;56544.63;;;-142.13;53.82
11712;BME280;5912;51.034;6.984;2023-04-10T02:34:50;56540.63;;;-142.13;53.70
11712;BME280;5912;51.034;6.984;2023-04-10T02:37:15;56516.59;;;-142.13;53.56
11712;BME280;5912;51.034;6.984;2023-04-10T02:39:41;56548.63;;;-142.13;53.81
11712;BME280;5912;51.034;6.984;2023-04-10T02:42:07;56548.63;;;-142.13;53.82
11712;BME280;5912;51.034;6.984;2023-04-10T02:44:32;56540.63;;;-142.13;53.89
11712;BME280;5912;51.034;6.984;2023-04-10T02:46:57;56536.63;;;-142.13;53.92
11712;BME280;5912;51.034;6.984;2023-04-10T02:49:23;56568.66;;;-142.13;53.79
11712;BME280;5912;51.034;6.984;2023-04-10T02:51:48;56536.63;;;-142.13;54.59
11712;BME280;5912;51.034;6.984;2023-04-10T02:54:13;56558.66;;;-142.13;54.29
11712;BME280;5912;51.034;6.984;2023-04-10T02:56:39;56562.66;;;-142.13;54.51
11712;BME280;5912;51.034;6.984;2023-04-10T02:59:04;56524.59;;;-142.13;55.22
11712;BME280;5912;51.034;6.984;2023-04-10T03:01:30;56544.63;;;-142.13;54.88
11712;BME280;5912;51.034;6.984;2023-04-10T03:03:56;56528.59;;;-142.13;55.18
11712;BME280;5912;51.034;6.984;2023-04-10T03:06:22;56534.63;;;-142.13;54.92
11712;BME280;5912;51.034;6.984;2023-04-10T03:08:50;56512.59;;;-142.13;55.18
11712;BME280;5912;51.034;6.984;2023-04-10T03:11:15;56538.63;;;-142.13;55.08
11712;BME280;5912;51.034;6.984;2023-04-10T03:13:41;56556.66;;;-142.13;55.06
11712;BME280;5912;51.034;6.984;2023-04-10T03:16:06;56530.59;;;-142.13;55.03
11712;BME280;5912;51.034;6.984;2023-04-10T03:18:31;56514.59;;;-142.13;55.18
11712;BME280;5912;51.034;6.984;2023-04-10T03:20:58;56580.69;;;-142.13;54.90
11712;BME280;5912;51.034;6.984;2023-04-10T03:23:23;56552.66;;;-142.13;54.93
11712;BME280;5912;51.034;6.984;2023-04-10T03:25:50;56532.63;;;-142.13;54.61
11712;BME280;5912;51.034;6.984;2023-04-10T03:28:18;56550.63;;;-142.13;54.69
11712;BME280;5912;51.034;6.984;2023-04-10T03:30:43;56532.63;;;-142.13;54.96
11712;BME280;5912;51.034;6.984;2023-04-10T03:33:08;56550.63;;;-142.13;54.61
11712;BME280;5912;51.034;6.984;2023-04-10T03:35:33;56536.63;;;-142.13;54.82
11712;BME280;5912;51.034;6.984;2023-04-10T03:37:59;56554.66;;;-142.13;54.12
11712;BME280;5912;51.034;6.984;2023-04-10T03:40:24;56510.56;;;-142.13;54.13
11712;BME280;5912;51.034;6.984;2023-04-10T03:42:50;56536.63;;;-142.13;53.75
11712;BME280;5912;51.034;6.984;2023-04-10T03:45:15;56546.63;;;-142.13;53.60
11712;BME280;5912;51.034;6.984;2023-04-10T03:47:40;56560.66;;;-142.13;52.96
11712;BME280;5912;51.034;6.984;2023-04-10T03:50:06;56490.53;;;-142.13;52.82
11712;BME280;5912;51.034;6.984;2023-04-10T03:52:31;56528.59;;;-142.13;52.70
11712;BME280;5912;51.034;6.984;2023-04-10T03:54:56;56552.66;;;-142.13;52.11
11712;BME280;5912;51.034;6.984;2023-04-10T03:57:22;56510.56;;;-142.13;52.22
11712;BME280;5912;51.034;6.984;2023-04-10T03:59:47;56654.81;;;-142.13;51.79
11712;BME280;5912;51.034;6.984;2023-04-10T04:02:13;56516.59;;;-142.13;51.65
11712;BME280;5912;51.034;6.984;2023-04-10T04:04:39;56514.59;;;-142.13;51.18
11712;BME280;5912;51.034;6.984;2023-04-10T04:07:04;56538.63;;;-142.13;50.94
11712;BME280;5912;51.034;6.984;2023-04-10T04:09:30;56526.59;;;-142.13;50.84
11712;BME280;5912;51.034;6.984;2023-04-10T04:11:55;56508.56;;;-142.13;50.46
11712;BME280;5912;51.034;6.984;2023-04-10T04:14:22;56532.63;;;-142.13;49.83
11712;BME280;5912;51.034;6.984;2023-04-10T04:16:48;56512.59;;;-142.13;49.46
11712;BME280;5912;51.034;6.984;2023-04-10T04:19:13;56516.59;;;-142.13;49.18
11712;BME280;5912;51.034;6.984;2023-04-10T04:21:38;56518.59;;;-142.13;48.52
11712;BME280;5912;51.034;6.984;2023-04-10T04:24:04;56524.59;;;-142.13;48.59
11712;BME280;5912;51.034;6.984;2023-04-10T04:26:29;56532.63;;;-142.13;48.43
11712;BME280;5912;51.034;6.984;2023-04-10T04:28:55;56644.81;;;-142.13;48.21
11712;BME280;5912;51.034;6.984;2023-04-10T04:31:20;56532.63;;;-142.13;48.32
11712;BME280;5912;51.034;6.984;2023-04-10T04:33:45;56524.59;;;-142.13;48.09
11712;BME280;5912;51.034;6.984;2023-04-10T04:36:11;56502.56;;;-142.13;48.14
11712;BME280;5912;51.034;6.984;2023-04-10T04:38:36;56524.59;;;-142.13;48.18
11712;BME280;5912;51.034;6.984;2023-04-10T04:41:01;56532.63;;;-142.13;48.37
11712;BME280;5912;51.034;6.984;2023-04-10T04:43:27;56520.59;;;-142.13;47.89
11712;BME280;5912;51.034;6.984;2023-04-10T04:45:52;56514.59;;;-142.13;48.23
11712;BME280;5912;51.034;6.984;2023-04-10T04:48:17;56522.59;;;-142.13;47.73
11712;BME280;5912;51.034;6.984;2023-04-10T04:50:43;56496.56;;;-142.13;47.91
11712;BME280;5912;51.034;6.984;2023-04-10T04:53:08;56522.59;;;-142.13;47.88
11712;BME280;5912;51.034;6.984;2023-04-10T04:55:34;56518.59;;;-142.13;47.32
11712;BME280;5912;51.034;6.984;2023-04-10T04:57:59;56508.56;;;-142.13;47.59
11712;BME280;5912;51.034;6.984;2023-04-10T05:00:24;56496.56;;;-142.13;47.26
11712;BME280;5912;51.034;6.984;2023-04-10T05:02:50;56460.50;;;-142.13;46.71
11712;BME280;5912;51.034;6.984;2023-04-10T05:05:15;56488.53;;;-142.13;46.64
11712;BME280;5912;51.034;6.984;2023-04-10T05:07:41;56500.56;;;-142.13;46.51
11712;BME280;5912;51.034;6.984;2023-04-10T05:10:07;56486.53;;;-142.13;46.29
11712;BME280;5912;51.034;6.984;2023-04-10T05:12:32;56474.53;;;-142.13;46.61
11712;BME280;5912;51.034;6.984;2023-04-10T05:14:58;56480.53;;;-142.13;46.40
11712;BME280;5912;51.034;6.984;2023-04-10T05:17:23;56516.59;;;-142.13;46.01
11712;BME280;5912;51.034;6.984;2023-04-10T05:19:48;56508.56;;;-142.13;46.01
11712;BME280;5912;51.034;6.984;2023-04-10T05:22:13;56514.59;;;-142.13;45.77
11712;BME280;5912;51.034;6.984;2023-04-10T05:24:39;56500.56;;;-142.13;45.82
11712;BME280;5912;51.034;6.984;2023-04-10T05:27:04;56472.50;;;-142.13;45.64
11712;BME280;5912;51.034;6.984;2023-04-10T05:29:30;56488.53;;;-142.13;45.86
11712;BME280;5912;51.034;6.984;2023-04-10T05:31:55;56460.50;;;-142.13;45.67
11712;BME280;5912;51.034;6.984;2023-04-10T05:34:20;56502.56;;;-142.13;45.58
11712;BME280;5912;51.034;6.984;2023-04-10T05:36:46;56472.50;;;-142.13;45.47
11712;BME280;5912;51.034;6.984;2023-04-10T05:39:11;56452.47;;;-142.13;45.38
11712;BME280;5912;51.034;6.984;2023-04-10T05:41:37;56468.50;;;-142.13;44.84
11712;BME280;5912;51.034;6.984;2023-04-10T05:44:03;56466.50;;;-142.13;44.54
11712;BME280;5912;51.034;6.984;2023-04-10T05:46:28;56474.53;;;-142.13;44.27
11712;BME280;5912;51.034;6.984;2023-04-10T05:48:53;56484.53;;;-142.13;44.38
11712;BME280;5912;51.034;6.984;2023-04-10T05:51:18;56456.50;;;-142.13;44.23
11712;BME280;5912;51.034;6.984;2023-04-10T05:53:44;56436.47;;;-142.13;43.66
11712;BME280;5912;51.034;6.984;2023-04-10T05:56:09;56466.50;;;-142.13;43.39
11712;BME280;5912;51.034;6.984;2023-04-10T05:58:34;56460.50;;;-142.13;43.08
11712;BME280;5912;51.034;6.984;2023-04-10T06:01:00;56460.50;;;-142.13;43.08
11712;BME280;5912;51.034;6.984;2023-04-10T06:03:25;56464.50;;;-142.13;43.03
11712;BME280;5912;51.034;6.984;2023-04-10T06:05:55;56504.56;;;-142.13;42.97
11712;BME280;5912;51.034;6.984;2023-04-10T06:08:20;56452.47;;;-142.13;42.89
11712;BME280;5912;51.034;6.984;2023-04-10T06:10:47;56458.50;;;-142.13;42.83
11712;BME280;5912;51.034;6.984;2023-04-10T06:13:12;56442.47;;;-142.13;42.94
11712;BME280;5912;51.034;6.984;2023-04-10T06:15:39;56458.50;;;-142.13;42.79
11712;BME280;5912;51.034;6.984;2023-04-10T06:18:04;56434.44;;;-142.13;42.35
11712;BME280;5912;51.034;6.984;2023-04-10T06:20:30;56452.47;;;-142.13;42.47
11712;BME280;5912;51.034;6.984;2023-04-10T06:22:57;56432.44;;;-142.13;42.43
11712;BME280;5912;51.034;6.984;2023-04-10T06:25:22;56428.44;;;-142.13;42.50
11712;BME280;5912;51.034;6.984;2023-04-10T06:27:48;56440.47;;;-142.13;42.21
11712;BME280;5912;51.034;6.984;2023-04-10T06:30:13;56460.50;;;-142.13;41.93
11712;BME280;5912;51.034;6.984;2023-04-10T06:32:38;56452.47;;;-142.13;41.90
11712;BME280;5912;51.034;6.984;2023-04-10T06:35:04;56432.44;;;-142.13;41.67
11712;BME280;5912;51.034;6.984;2023-04-10T06:37:30;56448.47;;;-142.13;41.13
11712;BME280;5912;51.034;6.984;2023-04-10T06:40:21;56416.44;;;-142.13;41.00
11712;BME280;5912;51.034;6.984;2023-04-10T06:42:46;56428.44;;;-142.13;40.86
11712;BME280;5912;51.034;6.984;2023-04-10T06:45:12;56426.44;;;-142.13;40.87
11712;BME280;5912;51.034;6.984;2023-04-10T06:47:37;56392.38;;;-142.13;40.40
11712;BME280;5912;51.034;6.984;2023-04-10T06:50:03;56400.41;;;-142.13;40.11
11712;BME280;5912;51.034;6.984;2023-04-10T06:52:28;56404.41;;;-142.13;39.74
11712;BME280;5912;51.034;6.984;2023-04-10T06:54:53;56380.38;;;-142.13;38.90
11712;BME280;5912;51.034;6.984;2023-04-10T06:57:19;56382.38;;;-142.13;37.82
11712;BME280;5912;51.034;6.984;2023-04-10T06:59:44;56332.28;;;-142.13;37.41
11712;BME280;5912;51.034;6.984;2023-04-10T07:02:09;56332.28;;;-142.13;36.86
11712;BME280;5912;51.034;6.984;2023-04-10T07:04:35;56314.25;;;-142.13;36.21
11712;BME280;5912;51.034;6.984;2023-04-10T07:07:00;56318.25;;;-142.13;35.74
11712;BME280;5912;51.034;6.984;2023-04-10T07:09:26;56326.28;;;-142.13;35.59
11712;BME280;5912;51.034;6.984;2023-04-10T07:11:52;56310.25;;;-142.13;35.32
11712;BME280;5912;51.034;6.984;2023-04-10T07:14:17;56286.22;;;-142.13;34.72
11712;BME280;5912;51.034;6.984;2023-04-10T07:16:43;56308.25;;;-142.13;34.75
11712;BME280;5912;51.034;6.984;2023-04-10T07:19:08;56252.16;;;-142.13;34.42
11712;BME280;5912;51.034;6.984;2023-04-10T07:21:33;56282.22;;;-142.13;33.91
11712;BME280;5912;51.034;6.984;2023-04-10T07:23:59;56276.19;;;-142.13;33.82
11712;BME280;5912;51.034;6.984;2023-04-10T07:26:24;56264.19;;;-142.13;33.48
11712;BME280;5912;51.034;6.984;2023-04-10T07:28:50;56256.16;;;-142.13;33.09
11712;BME280;5912;51.034;6.984;2023-04-10T07:31:15;56246.16;;;-142.13;32.65
11712;BME280;5912;51.034;6.984;2023-04-10T07:33:43;56260.19;;;-142.13;32.91
11712;BME280;5912;51.034;6.984;2023-04-10T07:36:09;56258.16;;;-142.13;32.92
11712;BME280;5912;51.034;6.984;2023-04-10T07:38:34;56266.19;;;-142.13;32.55
11712;BME280;5912;51.034;6.984;2023-04-10T07:41:00;56248.16;;;-142.13;32.68
11712;BME280;5912;51.034;6.984;2023-04-10T07:43:25;56270.19;;;-142.13;32.68
11712;BME280;5912;51.034;6.984;2023-04-10T07:45:51;56272.19;;;-142.13;32.32
11712;BME280;5912;51.034;6.984;2023-04-10T07:48:17;56268.19;;;-142.13;32.33
11712;BME280;5912;51.034;6.984;2023-04-10T07:50:42;56264.19;;;-142.13;32.61
11712;BME280;5912;51.034;6.984;2023-04-10T07:53:07;56248.16;;;-142.13;32.69
11712;BME280;5912;51.034;6.984;2023-04-10T07:55:40;56248.16;;;-142.13;32.58
11712;BME280;5912;51.034;6.984;2023-04-10T07:58:06;56280.22;;;-142.13;32.41
11712;BME280;5912;51.034;6.984;2023-04-10T08:00:32;56264.19;;;-142.13;32.08
11712;BME280;5912;51.034;6.984;2023-04-10T08:02:57;56248.16;;;-142.13;32.09
11712;BME280;5912;51.034;6.984;2023-04-10T08:05:23;56278.19;;;-142.13;32.08
11712;BME280;5912;51.034;6.984;2023-04-10T08:07:48;56212.09;;;-142.13;31.54
11712;BME280;5912;51.034;6.984;2023-04-10T08:10:13;56216.09;;;-142.13;31.36
11712;BME280;5912;51.034;6.984;2023-04-10T08:12:39;56228.13;;;-142.13;30.95
11712;BME280;5912;51.034;6.984;2023-04-10T08:15:05;56196.06;;;-142.13;30.61
11712;BME280;5912;51.034;6.984;2023-04-10T08:17:31;56222.13;;;-142.13;30.27
11712;BME280;5912;51.034;6.984;2023-04-10T08:19:56;56190.06;;;-142.13;30.37
11712;BME280;5912;51.034;6.984;2023-04-10T08:22:21;56198.06;;;-142.13;30.24
11712;BME280;5912;51.034;6.984;2023-04-10T08:24:46;56184.06;;;-142.13;30.17
11712;BME280;5912;51.034;6.984;2023-04-10T08:27:12;56190.06;;;-142.13;30.22
11712;BME280;5912;51.034;6.984;2023-04-10T08:29:38;56172.03;;;-142.13;29.81
11712;BME280;5912;51.034;6.984;2023-04-10T08:32:03;56172.03;;;-142.13;29.77
11712;BME280;5912;51.034;6.984;2023-04-10T08:34:29;56194.06;;;-142.13;29.42
11712;BME280;5912;51.034;6.984;2023-04-10T08:36:54;56178.03;;;-142.13;29.21
11712;BME280;5912;51.034;6.984;2023-04-10T08:39:19;56178.03;;;-142.13;29.94
11712;BME280;5912;51.034;6.984;2023-04-10T08:41:44;56202.09;;;-142.13;29.71
11712;BME280;5912;51.034;6.984;2023-04-10T08:44:10;56210.09;;;-142.13;29.99
11712;BME280;5912;51.034;6.984;2023-04-10T08:46:41;56184.06;;;-142.13;29.62
11712;BME280;5912;51.034;6.984;2023-04-10T08:49:09;56204.09;;;-142.13;29.75
11712;BME280;5912;51.034;6.984;2023-04-10T08:51:45;56156.00;;;-142.13;29.44
11712;BME280;5912;51.034;6.984;2023-04-10T08:54:17;56144.00;;;-142.13;29.85
11712;BME280;5912;51.034;6.984;2023-04-10T08:56:47;56184.06;;;-142.13;29.16
11712;BME280;5912;51.034;6.984;2023-04-10T08:59:14;56156.00;;;-142.13;28.56
11712;BME280;5912;51.034;6.984;2023-04-10T09:01:40;56170.03;;;-142.13;28.78
11712;BME280;5912;51.034;6.984;2023-04-10T09:04:05;56156.00;;;-142.13;29.08
11712;BME280;5912;51.034;6.984;2023-04-10T09:06:31;56160.03;;;-142.13;28.60
11712;BME280;5912;51.034;6.984;2023-04-10T09:08:56;56148.00;;;-142.13;27.88
11712;BME280;5912;51.034;6.984;2023-04-10T09:14:22;56154.00;;;-142.13;28.51
11712;BME280;5912;51.034;6.984;2023-04-10T09:16:50;56148.00;;;-142.13;28.38
11712;BME280;5912;51.034;6.984;2023-04-10T09:19:32;56162.03;;;-142.13;28.02
11712;BME280;5912;51.034;6.984;2023-04-10T09:21:58;56156.00;;;-142.13;28.09
11712;BME280;5912;51.034;6.984;2023-04-10T09:24:24;56146.00;;;-142.13;27.92
11712;BME280;5912;51.034;6.984;2023-04-10T09:26:50;56129.97;;;-142.13;27.93
11712;BME280;5912;51.034;6.984;2023-04-10T09:29:15;56125.97;;;-142.13;27.78
11712;BME280;5912;51.034;6.984;2023-04-10T09:31:43;56119.97;;;-142.13;27.21
11712;BME280;5912;51.034;6.984;2023-04-10T09:36:34;56125.97;;;-142.13;27.53
11712;BME280;5912;51.034;6.984;2023-04-10T09:39:01;56115.94;;;-142.13;27.30
11712;BME280;5912;51.034;6.984;2023-04-10T09:41:27;56079.91;;;-142.13;26.56
11712;BME280;5912;51.034;6.984;2023-04-10T09:44:09;56087.91;;;-142.13;26.53
11712;BME280;5912;51.034;6.984;2023-04-10T09:46:36;56089.91;;;-142.13;26.39
11712;BME280;5912;51.034;6.984;2023-04-10T09:49:01;56127.97;;;-142.13;26.85
11712;BME280;5912;51.034;6.984;2023-04-10T09:51:30;56067.88;;;-142.13;26.85
11712;BME280;5912;51.034;6.984;2023-04-10T09:53:56;56111.94;;;-142.13;26.95
11712;BME280;5912;51.034;6.984;2023-04-10T09:56:24;56107.94;;;-142.13;26.35
11712;BME280;5912;51.034;6.984;2023-04-10T09:58:52;56089.91;;;-142.13;25.92
11712;BME280;5912;51.034;6.984;2023-04-10T10:01:21;56123.97;;;-142.13;26.22
11712;BME280;5912;51.034;6.984;2023-04-10T10:03:46;56069.88;;;-142.13;25.78
11712;BME280;5912;51.034;6.984;2023-04-10T10:06:12;56069.88;;;-142.13;25.50
11712;BME280;5912;51.034;6.984;2023-04-10T10:08:37;56071.88;;;-142.13;25.50
11712;BME280;5912;51.034;6.984;2023-04-10T10:11:05;56057.88;;;-142.13;25.36
11712;BME280;5912;51.034;6.984;2023-04-10T10:13:49;56075.88;;;-142.13;25.39
11712;BME280;5912;51.034;6.984;2023-04-10T10:16:28;56075.88;;;-142.13;25.24
11712;BME280;5912;51.034;6.984;2023-04-10T10:19:06;56063.88;;;-142.13;25.58
11712;BME280;5912;51.034;6.984;2023-04-10T10:21:33;56055.84;;;-142.13;25.16
11712;BME280;5912;51.034;6.984;2023-04-10T10:24:00;56031.81;;;-142.13;25.04
11712;BME280;5912;51.034;6.984;2023-04-10T10:26:28;56075.88;;;-142.13;25.11
11712;BME280;5912;51.034;6.984;2023-04-10T10:28:55;56051.84;;;-142.13;25.29
11712;BME280;5912;51.034;6.984;2023-04-10T10:31:21;55999.78;;;-142.13;25.09
11712;BME280;5912;51.034;6.984;2023-04-10T10:33:51;55967.72;;;-142.13;24.67
11712;BME280;5912;51.034;6.984;2023-04-10T10:36:18;55993.75;;;-142.13;24.62
11712;BME280;5912;51.034;6.984;2023-04-10T10:38:52;55983.75;;;-142.13;24.75
11712;BME280;5912;51.034;6.984;2023-04-10T10:41:29;55989.75;;;-142.13;23.79
11712;BME280;5912;51.034;6.984;2023-04-10T10:44:10;55981.75;;;-142.13;24.38
11712;BME280;5912;51.034;6.984;2023-04-10T10:47:00;55943.69;;;-142.13;24.02
11712;BME280;5912;51.034;6.984;2023-04-10T10:49:50;55949.69;;;-142.13;24.33
11712;BME280;5912;51.034;6.984;2023-04-10T10:57:47;55985.75;;;-142.13;23.45
11712;BME280;5912;51.034;6.984;2023-04-10T11:00:15;56007.78;;;-142.13;23.78
11712;BME280;5912;51.034;6.984;2023-04-10T11:02:40;55995.78;;;-142.13;23.89
11712;BME280;5912;51.034;6.984;2023-04-10T11:05:06;56033.81;;;-142.13;23.61
11712;BME280;5912;51.034;6.984;2023-04-10T11:10:58;55995.78;;;-142.13;23.84
11712;BME280;5912;51.034;6.984;2023-04-10T11:21:25;56003.78;;;-142.13;23.76
11712;BME280;5912;51.034;6.984;2023-04-10T11:29:44;56007.78;;;-142.13;24.38
11712;BME280;5912;51.034;6.984;2023-04-10T11:31:46;56005.78;;;-142.13;23.97
11712;BME280;5912;51.034;6.984;2023-04-10T11:34:18;55973.75;;;-142.13;24.21
11712;BME280;5912;51.034;6.984;2023-04-10T11:36:43;55995.78;;;-142.13;23.49
11712;BME280;5912;51.034;6.984;2023-04-10T11:39:13;56023.81;;;-142.13;23.56
11712;BME280;5912;51.034;6.984;2023-04-10T11:41:41;56011.78;;;-142.13;23.62
11712;BME280;5912;51.034;6.984;2023-04-10T11:44:08;56051.84;;;-142.13;22.96
11712;BME280;5912;51.034;6.984;2023-04-10T11:46:39;56009.78;;;-142.13;23.98
11712;BME280;5912;51.034;6.984;2023-04-10T11:49:06;55995.78;;;-142.13;24.19
11712;BME280;5912;51.034;6.984;2023-04-10T11:51:33;56049.84;;;-142.13;24.06
11712;BME280;5912;51.034;6.984;2023-04-10T11:54:12;56039.84;;;-142.13;24.57
11712;BME280;5912;51.034;6.984;2023-04-10T11:56:40;56033.81;;;-142.13;24.37
11712;BME280;5912;51.034;6.984;2023-04-10T11:59:06;56047.84;;;-142.13;25.23
11712;BME280;5912;51.034;6.984;2023-04-10T12:01:35;56047.84;;;-142.13;25.11
11712;BME280;5912;51.034;6.984;2023-04-10T12:04:00;56063.88;;;-142.13;25.34
11712;BME280;5912;51.034;6.984;2023-04-10T12:06:26;56071.88;;;-142.13;25.04
11712;BME280;5912;51.034;6.984;2023-04-10T12:08:52;56057.88;;;-142.13;25.57
11712;BME280;5912;51.034;6.984;2023-04-10T12:11:19;56099.94;;;-142.13;25.53
11712;BME280;5912;51.034;6.984;2023-04-10T12:13:45;56079.91;;;-142.13;25.33
11712;BME280;5912;51.034;6.984;2023-04-10T12:16:11;56073.88;;;-142.13;25.58
11712;BME280;5912;51.034;6.984;2023-04-10T12:18:37;56079.91;;;-142.13;25.65
11712;BME280;5912;51.034;6.984;2023-04-10T12:21:03;56067.88;;;-142.13;26.04
11712;BME280;5912;51.034;6.984;2023-04-10T12:23:29;56087.91;;;-142.13;25.27
11712;BME280;5912;51.034;6.984;2023-04-10T12:26:11;56067.88;;;-142.13;25.42
11712;BME280;5912;51.034;6.984;2023-04-10T12:28:38;56079.91;;;-142.13;25.32
11712;BME280;5912;51.034;6.984;2023-04-10T12:31:04;56075.88;;;-142.13;24.72
11712;BME280;5912;51.034;6.984;2023-04-10T12:33:29;56089.91;;;-142.13;25.00
11712;BME280;5912;51.034;6.984;2023-04-10T12:35:55;56071.88;;;-142.13;24.89
11712;BME280;5912;51.034;6.984;2023-04-10T12:38:39;56055.84;;;-142.13;24.72
11712;BME280;5912;51.034;6.984;2023-04-10T12:41:06;56073.88;;;-142.13;25.06
11712;BME280;5912;51.034;6.984;2023-04-10T12:43:39;56057.88;;;-142.13;24.80
11712;BME280;5912;51.034;6.984;2023-04-10T12:46:06;56033.81;;;-142.13;23.99
11712;BME280;5912;51.034;6.984;2023-04-10T12:48:32;56045.84;;;-142.13;24.87
11712;BME280;5912;51.034;6.984;2023-04-10T12:50:58;56021.81;;;-142.13;24.30
11712;BME280;5912;51.034;6.984;2023-04-10T12:53:24;56051.84;;;-142.13;24.57
11712;BME280;5912;51.034;6.984;2023-04-10T12:56:02;56021.81;;;-142.13;24.52
11712;BME280;5912;51.034;6.984;2023-04-10T12:58:28;56041.84;;;-142.13;24.56
11712;BME280;5912;51.034;6.984;2023-04-10T13:00:56;56055.84;;;-142.13;24.46
11712;BME280;5912;51.034;6.984;2023-04-10T13:03:22;56047.84;;;-142.13;24.55
11712;BME280;5912;51.034;6.984;2023-04-10T13:05:47;56019.81;;;-142.13;24.32
11712;BME280;5912;51.034;6.984;2023-04-10T13:08:13;56045.84;;;-142.13;24.29
11712;BME280;5912;51.034;6.984;2023-04-10T13:10:38;56055.84;;;-142.13;25.06
11712;BME280;5912;51.034;6.984;2023-04-10T13:13:06;56055.84;;;-142.13;24.49
11712;BME280;5912;51.034;6.984;2023-04-10T13:15:31;56045.84;;;-142.13;24.57
11712;BME280;5912;51.034;6.984;2023-04-10T13:17:59;56047.84;;;-142.13;24.73
11712;BME280;5912;51.034;6.984;2023-04-10T13:20:24;56057.88;;;-142.13;24.15
11712;BME280;5912;51.034;6.984;2023-04-10T13:22:50;56027.81;;;-142.13;24.62
11712;BME280;5912;51.034;6.984;2023-04-10T13:25:15;56051.84;;;-142.13;24.75
11712;BME280;5912;51.034;6.984;2023-04-10T13:27:40;56029.81;;;-142.13;24.22
11712;BME280;5912;51.034;6.984;2023-04-10T13:30:06;56047.84;;;-142.13;24.65
11712;BME280;5912;51.034;6.984;2023-04-10T13:32:32;56033.81;;;-142.13;24.50